Terminal Aerodrome Forecast
Issued by NWS

Home | Current Version | Previous Version | Text Only | Print | Product List | Glossary On
Versions: 1 2 3 4 5 6 7 8 9 10 11 12 13 14
000
FTUS44 KLZK 221700
TAFADF
TAF
KADF 221728Z 2218/2318 22008KT P6SM SCT030
     FM222000 22010KT P6SM FEW040
     FM230100 17004KT P6SM SCT250
     FM231400 24005KT P6SM SCT020=

USA.gov is the U.S. government's official web portal to all federal, state and local government web resources and services.